sensor_id;sensor_type;location;lat;lon;timestamp;P1;durP1;ratioP1;P2;durP2;ratioP2
35803;SDS011;21924;51.934;7.414;2023-08-17T00:01:32;4.00;;;2.17;;
35803;SDS011;21924;51.934;7.414;2023-08-17T00:04:17;8.07;;;2.45;;
35803;SDS011;21924;51.934;7.414;2023-08-17T00:07:01;6.03;;;2.25;;
35803;SDS011;21924;51.934;7.414;2023-08-17T00:09:45;5.25;;;2.20;;
35803;SDS011;21924;51.934;7.414;2023-08-17T00:12:29;4.65;;;2.65;;
35803;SDS011;21924;51.934;7.414;2023-08-17T00:15:13;6.65;;;2.45;;
35803;SDS011;21924;51.934;7.414;2023-08-17T00:17:58;5.70;;;2.72;;
35803;SDS011;21924;51.934;7.414;2023-08-17T00:20:42;3.15;;;2.20;;
35803;SDS011;21924;51.934;7.414;2023-08-17T00:23:28;6.78;;;2.60;;
35803;SDS011;21924;51.934;7.414;2023-08-17T00:26:12;8.57;;;2.90;;
35803;SDS011;21924;51.934;7.414;2023-08-17T00:28:58;7.05;;;2.80;;
35803;SDS011;21924;51.934;7.414;2023-08-17T00:31:42;7.80;;;2.40;;
35803;SDS011;21924;51.934;7.414;2023-08-17T00:34:29;7.07;;;2.45;;
35803;SDS011;21924;51.934;7.414;2023-08-17T00:37:16;5.72;;;2.30;;
35803;SDS011;21924;51.934;7.414;2023-08-17T00:40:00;5.40;;;2.60;;
35803;SDS011;21924;51.934;7.414;2023-08-17T00:42:44;4.85;;;2.58;;
35803;SDS011;21924;51.934;7.414;2023-08-17T00:45:30;5.65;;;2.88;;
35803;SDS011;21924;51.934;7.414;2023-08-17T00:48:19;6.90;;;2.63;;
35803;SDS011;21924;51.934;7.414;2023-08-17T00:51:03;2.83;;;2.30;;
35803;SDS011;21924;51.934;7.414;2023-08-17T00:53:48;6.05;;;1.88;;
35803;SDS011;21924;51.934;7.414;2023-08-17T00:56:37;4.93;;;2.45;;
35803;SDS011;21924;51.934;7.414;2023-08-17T00:59:22;4.22;;;2.47;;
35803;SDS011;21924;51.934;7.414;2023-08-17T01:02:07;5.80;;;2.40;;
35803;SDS011;21924;51.934;7.414;2023-08-17T01:04:53;7.80;;;2.97;;
35803;SDS011;21924;51.934;7.414;2023-08-17T01:07:37;3.33;;;2.17;;
35803;SDS011;21924;51.934;7.414;2023-08-17T01:10:21;7.68;;;2.97;;
35803;SDS011;21924;51.934;7.414;2023-08-17T01:13:13;5.00;;;3.03;;
35803;SDS011;21924;51.934;7.414;2023-08-17T01:16:43;5.57;;;2.72;;
35803;SDS011;21924;51.934;7.414;2023-08-17T01:26:52;6.25;;;2.65;;
35803;SDS011;21924;51.934;7.414;2023-08-17T01:29:37;3.97;;;2.75;;
35803;SDS011;21924;51.934;7.414;2023-08-17T01:32:30;5.93;;;2.30;;
35803;SDS011;21924;51.934;7.414;2023-08-17T01:38:19;4.65;;;2.70;;
35803;SDS011;21924;51.934;7.414;2023-08-17T01:41:08;4.25;;;2.30;;
35803;SDS011;21924;51.934;7.414;2023-08-17T01:43:59;12.18;;;3.03;;
35803;SDS011;21924;51.934;7.414;2023-08-17T01:46:44;4.10;;;2.67;;
35803;SDS011;21924;51.934;7.414;2023-08-17T01:49:30;5.10;;;2.65;;
35803;SDS011;21924;51.934;7.414;2023-08-17T01:52:14;10.10;;;2.88;;
35803;SDS011;21924;51.934;7.414;2023-08-17T01:54:59;8.70;;;2.45;;
35803;SDS011;21924;51.934;7.414;2023-08-17T01:57:43;7.43;;;2.50;;
35803;SDS011;21924;51.934;7.414;2023-08-17T02:00:27;5.20;;;2.33;;
35803;SDS011;21924;51.934;7.414;2023-08-17T02:03:11;5.00;;;2.42;;
35803;SDS011;21924;51.934;7.414;2023-08-17T02:05:56;6.65;;;2.70;;
35803;SDS011;21924;51.934;7.414;2023-08-17T02:08:41;8.20;;;2.58;;
35803;SDS011;21924;51.934;7.414;2023-08-17T02:11:27;5.70;;;3.17;;
35803;SDS011;21924;51.934;7.414;2023-08-17T02:14:11;8.43;;;2.67;;
35803;SDS011;21924;51.934;7.414;2023-08-17T02:16:56;7.43;;;3.13;;
35803;SDS011;21924;51.934;7.414;2023-08-17T02:19:41;10.38;;;3.40;;
35803;SDS011;21924;51.934;7.414;2023-08-17T02:22:26;7.70;;;3.83;;
35803;SDS011;21924;51.934;7.414;2023-08-17T02:28:51;10.60;;;3.53;;
35803;SDS011;21924;51.934;7.414;2023-08-17T02:38:25;5.57;;;3.13;;
35803;SDS011;21924;51.934;7.414;2023-08-17T02:41:09;4.65;;;3.13;;
35803;SDS011;21924;51.934;7.414;2023-08-17T02:43:54;6.28;;;3.13;;
35803;SDS011;21924;51.934;7.414;2023-08-17T02:46:38;7.45;;;3.60;;
35803;SDS011;21924;51.934;7.414;2023-08-17T02:49:22;3.33;;;2.83;;
35803;SDS011;21924;51.934;7.414;2023-08-17T02:52:06;11.75;;;4.05;;
35803;SDS011;21924;51.934;7.414;2023-08-17T02:54:50;10.73;;;3.30;;
35803;SDS011;21924;51.934;7.414;2023-08-17T02:57:35;8.13;;;3.95;;
35803;SDS011;21924;51.934;7.414;2023-08-17T03:00:19;10.77;;;3.72;;
35803;SDS011;21924;51.934;7.414;2023-08-17T03:03:03;5.70;;;3.20;;
35803;SDS011;21924;51.934;7.414;2023-08-17T03:05:51;8.65;;;3.75;;
35803;SDS011;21924;51.934;7.414;2023-08-17T03:08:35;11.48;;;3.63;;
35803;SDS011;21924;51.934;7.414;2023-08-17T03:11:20;8.63;;;4.45;;
35803;SDS011;21924;51.934;7.414;2023-08-17T03:14:04;12.23;;;3.97;;
35803;SDS011;21924;51.934;7.414;2023-08-17T03:16:48;6.03;;;3.70;;
35803;SDS011;21924;51.934;7.414;2023-08-17T03:19:33;7.15;;;3.67;;
35803;SDS011;21924;51.934;7.414;2023-08-17T03:22:17;5.07;;;3.42;;
35803;SDS011;21924;51.934;7.414;2023-08-17T03:25:03;7.55;;;4.50;;
35803;SDS011;21924;51.934;7.414;2023-08-17T03:30:32;11.57;;;4.15;;
35803;SDS011;21924;51.934;7.414;2023-08-17T03:33:16;8.38;;;4.28;;
35803;SDS011;21924;51.934;7.414;2023-08-17T03:36:02;10.05;;;4.93;;
35803;SDS011;21924;51.934;7.414;2023-08-17T03:38:46;12.00;;;4.53;;
35803;SDS011;21924;51.934;7.414;2023-08-17T03:41:32;7.70;;;3.97;;
35803;SDS011;21924;51.934;7.414;2023-08-17T03:44:20;12.07;;;3.60;;
35803;SDS011;21924;51.934;7.414;2023-08-17T03:47:04;6.10;;;3.95;;
35803;SDS011;21924;51.934;7.414;2023-08-17T03:49:49;6.68;;;4.13;;
35803;SDS011;21924;51.934;7.414;2023-08-17T03:52:38;7.22;;;3.65;;
35803;SDS011;21924;51.934;7.414;2023-08-17T03:55:22;10.50;;;3.90;;
35803;SDS011;21924;51.934;7.414;2023-08-17T03:58:07;6.15;;;4.40;;
35803;SDS011;21924;51.934;7.414;2023-08-17T04:00:54;12.05;;;4.07;;
35803;SDS011;21924;51.934;7.414;2023-08-17T04:03:39;7.50;;;4.10;;
35803;SDS011;21924;51.934;7.414;2023-08-17T04:06:23;11.67;;;4.63;;
35803;SDS011;21924;51.934;7.414;2023-08-17T04:09:11;6.95;;;4.68;;
35803;SDS011;21924;51.934;7.414;2023-08-17T04:12:26;15.75;;;4.72;;
35803;SDS011;21924;51.934;7.414;2023-08-17T04:15:10;9.07;;;4.47;;
35803;SDS011;21924;51.934;7.414;2023-08-17T04:17:54;8.57;;;4.30;;
35803;SDS011;21924;51.934;7.414;2023-08-17T04:20:48;11.55;;;4.70;;
35803;SDS011;21924;51.934;7.414;2023-08-17T04:23:34;9.90;;;4.25;;
35803;SDS011;21924;51.934;7.414;2023-08-17T04:26:19;9.63;;;3.92;;
35803;SDS011;21924;51.934;7.414;2023-08-17T04:29:03;5.55;;;3.67;;
35803;SDS011;21924;51.934;7.414;2023-08-17T04:31:51;6.47;;;3.83;;
35803;SDS011;21924;51.934;7.414;2023-08-17T04:34:35;7.35;;;4.35;;
35803;SDS011;21924;51.934;7.414;2023-08-17T04:37:21;12.18;;;4.78;;
35803;SDS011;21924;51.934;7.414;2023-08-17T04:40:05;12.68;;;4.13;;
35803;SDS011;21924;51.934;7.414;2023-08-17T04:42:51;7.37;;;4.07;;
35803;SDS011;21924;51.934;7.414;2023-08-17T04:45:35;8.57;;;4.32;;
35803;SDS011;21924;51.934;7.414;2023-08-17T04:48:19;11.65;;;4.90;;
35803;SDS011;21924;51.934;7.414;2023-08-17T04:51:05;8.70;;;4.38;;
35803;SDS011;21924;51.934;7.414;2023-08-17T04:53:49;11.07;;;4.15;;
35803;SDS011;21924;51.934;7.414;2023-08-17T04:56:33;10.20;;;4.88;;
35803;SDS011;21924;51.934;7.414;2023-08-17T04:59:19;7.30;;;3.78;;
35803;SDS011;21924;51.934;7.414;2023-08-17T05:02:03;7.32;;;4.65;;
35803;SDS011;21924;51.934;7.414;2023-08-17T05:04:49;18.17;;;4.88;;
35803;SDS011;21924;51.934;7.414;2023-08-17T05:07:33;8.13;;;4.60;;
35803;SDS011;21924;51.934;7.414;2023-08-17T05:10:18;11.45;;;4.90;;
35803;SDS011;21924;51.934;7.414;2023-08-17T05:13:02;11.43;;;5.00;;
35803;SDS011;21924;51.934;7.414;2023-08-17T05:15:47;14.20;;;5.40;;
35803;SDS011;21924;51.934;7.414;2023-08-17T05:18:31;9.95;;;5.30;;
35803;SDS011;21924;51.934;7.414;2023-08-17T05:21:15;6.68;;;4.15;;
35803;SDS011;21924;51.934;7.414;2023-08-17T05:24:00;10.45;;;5.18;;
35803;SDS011;21924;51.934;7.414;2023-08-17T05:26:44;13.90;;;5.22;;
35803;SDS011;21924;51.934;7.414;2023-08-17T05:29:28;10.38;;;4.25;;
35803;SDS011;21924;51.934;7.414;2023-08-17T05:32:12;10.57;;;4.70;;
35803;SDS011;21924;51.934;7.414;2023-08-17T05:34:58;10.25;;;4.47;;
35803;SDS011;21924;51.934;7.414;2023-08-17T05:37:42;11.65;;;4.70;;
35803;SDS011;21924;51.934;7.414;2023-08-17T05:40:28;7.15;;;4.15;;
35803;SDS011;21924;51.934;7.414;2023-08-17T05:43:15;10.10;;;4.32;;
35803;SDS011;21924;51.934;7.414;2023-08-17T05:46:00;10.70;;;3.70;;
35803;SDS011;21924;51.934;7.414;2023-08-17T05:48:44;7.65;;;4.10;;
35803;SDS011;21924;51.934;7.414;2023-08-17T05:51:30;5.25;;;3.50;;
35803;SDS011;21924;51.934;7.414;2023-08-17T05:54:15;7.00;;;3.63;;
35803;SDS011;21924;51.934;7.414;2023-08-17T05:56:59;8.82;;;3.80;;
35803;SDS011;21924;51.934;7.414;2023-08-17T05:59:43;13.45;;;4.28;;
35803;SDS011;21924;51.934;7.414;2023-08-17T06:02:27;12.68;;;3.22;;
35803;SDS011;21924;51.934;7.414;2023-08-17T06:05:12;10.60;;;3.63;;
35803;SDS011;21924;51.934;7.414;2023-08-17T06:07:58;11.88;;;4.28;;
35803;SDS011;21924;51.934;7.414;2023-08-17T06:10:42;11.95;;;4.18;;
35803;SDS011;21924;51.934;7.414;2023-08-17T06:13:26;7.05;;;3.35;;
35803;SDS011;21924;51.934;7.414;2023-08-17T06:16:11;7.32;;;3.60;;
35803;SDS011;21924;51.934;7.414;2023-08-17T06:18:55;6.80;;;3.38;;
35803;SDS011;21924;51.934;7.414;2023-08-17T06:21:39;13.60;;;4.22;;
35803;SDS011;21924;51.934;7.414;2023-08-17T06:24:24;12.10;;;3.95;;
35803;SDS011;21924;51.934;7.414;2023-08-17T06:27:08;8.63;;;4.15;;
35803;SDS011;21924;51.934;7.414;2023-08-17T06:29:52;7.07;;;3.88;;
35803;SDS011;21924;51.934;7.414;2023-08-17T06:32:37;8.60;;;3.65;;
35803;SDS011;21924;51.934;7.414;2023-08-17T06:35:23;8.45;;;3.78;;
35803;SDS011;21924;51.934;7.414;2023-08-17T06:38:07;12.13;;;4.43;;
35803;SDS011;21924;51.934;7.414;2023-08-17T06:40:52;11.57;;;4.22;;
35803;SDS011;21924;51.934;7.414;2023-08-17T06:43:38;11.38;;;3.95;;
35803;SDS011;21924;51.934;7.414;2023-08-17T06:46:22;6.75;;;4.00;;
35803;SDS011;21924;51.934;7.414;2023-08-17T06:49:08;7.38;;;3.88;;
35803;SDS011;21924;51.934;7.414;2023-08-17T06:51:52;8.18;;;3.65;;
35803;SDS011;21924;51.934;7.414;2023-08-17T06:54:38;12.57;;;4.63;;
35803;SDS011;21924;51.934;7.414;2023-08-17T06:57:22;8.85;;;4.05;;
35803;SDS011;21924;51.934;7.414;2023-08-17T07:00:07;9.13;;;3.63;;
35803;SDS011;21924;51.934;7.414;2023-08-17T07:02:52;7.53;;;4.70;;
35803;SDS011;21924;51.934;7.414;2023-08-17T07:05:36;10.90;;;4.40;;
35803;SDS011;21924;51.934;7.414;2023-08-17T07:08:20;10.77;;;4.45;;
35803;SDS011;21924;51.934;7.414;2023-08-17T07:11:04;12.65;;;4.63;;
35803;SDS011;21924;51.934;7.414;2023-08-17T07:13:49;14.25;;;4.80;;
35803;SDS011;21924;51.934;7.414;2023-08-17T07:16:33;9.18;;;4.40;;
35803;SDS011;21924;51.934;7.414;2023-08-17T07:19:18;8.40;;;4.25;;
35803;SDS011;21924;51.934;7.414;2023-08-17T07:22:03;7.03;;;4.18;;
35803;SDS011;21924;51.934;7.414;2023-08-17T07:24:47;10.87;;;3.77;;
35803;SDS011;21924;51.934;7.414;2023-08-17T07:27:32;7.35;;;4.32;;
35803;SDS011;21924;51.934;7.414;2023-08-17T07:30:16;8.85;;;4.35;;
35803;SDS011;21924;51.934;7.414;2023-08-17T07:33:02;14.13;;;5.05;;
35803;SDS011;21924;51.934;7.414;2023-08-17T07:35:46;9.88;;;4.85;;
35803;SDS011;21924;51.934;7.414;2023-08-17T07:38:31;12.10;;;4.63;;
35803;SDS011;21924;51.934;7.414;2023-08-17T07:41:16;7.97;;;4.32;;
35803;SDS011;21924;51.934;7.414;2023-08-17T07:44:00;11.55;;;5.05;;
35803;SDS011;21924;51.934;7.414;2023-08-17T07:46:45;8.23;;;5.22;;
35803;SDS011;21924;51.934;7.414;2023-08-17T07:49:29;9.30;;;5.32;;
35803;SDS011;21924;51.934;7.414;2023-08-17T07:52:13;10.43;;;4.60;;
35803;SDS011;21924;51.934;7.414;2023-08-17T07:54:57;10.80;;;4.20;;
35803;SDS011;21924;51.934;7.414;2023-08-17T07:57:45;8.43;;;5.05;;
35803;SDS011;21924;51.934;7.414;2023-08-17T08:00:29;11.82;;;4.93;;
35803;SDS011;21924;51.934;7.414;2023-08-17T08:03:14;11.60;;;5.05;;
35803;SDS011;21924;51.934;7.414;2023-08-17T08:05:58;10.75;;;4.38;;
35803;SDS011;21924;51.934;7.414;2023-08-17T08:08:43;10.63;;;4.03;;
35803;SDS011;21924;51.934;7.414;2023-08-17T08:11:27;10.18;;;4.90;;
35803;SDS011;21924;51.934;7.414;2023-08-17T08:14:11;11.63;;;4.95;;
35803;SDS011;21924;51.934;7.414;2023-08-17T08:16:55;13.50;;;4.60;;
35803;SDS011;21924;51.934;7.414;2023-08-17T08:19:40;10.63;;;5.22;;
35803;SDS011;21924;51.934;7.414;2023-08-17T08:22:24;6.57;;;4.10;;
35803;SDS011;21924;51.934;7.414;2023-08-17T08:25:09;9.70;;;4.72;;
35803;SDS011;21924;51.934;7.414;2023-08-17T08:27:54;9.00;;;4.65;;
35803;SDS011;21924;51.934;7.414;2023-08-17T08:30:38;10.07;;;4.50;;
35803;SDS011;21924;51.934;7.414;2023-08-17T08:33:23;13.25;;;5.63;;
35803;SDS011;21924;51.934;7.414;2023-08-17T08:36:08;9.27;;;5.57;;
35803;SDS011;21924;51.934;7.414;2023-08-17T08:38:52;10.65;;;5.47;;
35803;SDS011;21924;51.934;7.414;2023-08-17T08:41:37;7.22;;;4.65;;
35803;SDS011;21924;51.934;7.414;2023-08-17T08:44:22;11.27;;;5.45;;
35803;SDS011;21924;51.934;7.414;2023-08-17T08:47:06;10.38;;;5.00;;
35803;SDS011;21924;51.934;7.414;2023-08-17T08:50:02;8.10;;;4.70;;
35803;SDS011;21924;51.934;7.414;2023-08-17T08:53:02;12.02;;;5.07;;
35803;SDS011;21924;51.934;7.414;2023-08-17T08:55:54;8.75;;;5.22;;
35803;SDS011;21924;51.934;7.414;2023-08-17T08:58:41;11.85;;;5.20;;
35803;SDS011;21924;51.934;7.414;2023-08-17T09:01:26;15.75;;;5.03;;
35803;SDS011;21924;51.934;7.414;2023-08-17T09:04:12;10.38;;;5.80;;
35803;SDS011;21924;51.934;7.414;2023-08-17T09:06:58;15.70;;;5.95;;
35803;SDS011;21924;51.934;7.414;2023-08-17T09:09:44;9.18;;;5.38;;
35803;SDS011;21924;51.934;7.414;2023-08-17T09:15:16;11.80;;;5.43;;
35803;SDS011;21924;51.934;7.414;2023-08-17T09:18:00;12.25;;;6.05;;
35803;SDS011;21924;51.934;7.414;2023-08-17T09:20:46;14.38;;;5.85;;
35803;SDS011;21924;51.934;7.414;2023-08-17T09:23:31;8.75;;;5.05;;
35803;SDS011;21924;51.934;7.414;2023-08-17T09:26:15;10.23;;;5.65;;
35803;SDS011;21924;51.934;7.414;2023-08-17T09:29:03;12.10;;;5.30;;
35803;SDS011;21924;51.934;7.414;2023-08-17T09:32:06;12.43;;;5.80;;
35803;SDS011;21924;51.934;7.414;2023-08-17T09:34:50;18.15;;;5.80;;
35803;SDS011;21924;51.934;7.414;2023-08-17T09:37:35;14.10;;;5.95;;
35803;SDS011;21924;51.934;7.414;2023-08-17T09:40:19;12.18;;;6.63;;
35803;SDS011;21924;51.934;7.414;2023-08-17T09:43:03;11.90;;;5.93;;
35803;SDS011;21924;51.934;7.414;2023-08-17T09:45:48;11.05;;;5.90;;
35803;SDS011;21924;51.934;7.414;2023-08-17T09:48:36;13.15;;;5.70;;
35803;SDS011;21924;51.934;7.414;2023-08-17T09:51:20;12.15;;;5.80;;
35803;SDS011;21924;51.934;7.414;2023-08-17T09:54:04;14.80;;;6.22;;
35803;SDS011;21924;51.934;7.414;2023-08-17T09:56:52;14.60;;;6.95;;
35803;SDS011;21924;51.934;7.414;2023-08-17T09:59:37;10.63;;;5.47;;
35803;SDS011;21924;51.934;7.414;2023-08-17T10:02:23;11.80;;;5.88;;
35803;SDS011;21924;51.934;7.414;2023-08-17T10:05:07;21.58;;;6.15;;
35803;SDS011;21924;51.934;7.414;2023-08-17T10:07:56;20.77;;;5.93;;
35803;SDS011;21924;51.934;7.414;2023-08-17T10:10:44;10.35;;;5.38;;
35803;SDS011;21924;51.934;7.414;2023-08-17T10:13:35;13.93;;;5.72;;
35803;SDS011;21924;51.934;7.414;2023-08-17T10:16:29;8.02;;;5.18;;
35803;SDS011;21924;51.934;7.414;2023-08-17T10:19:25;13.35;;;6.13;;
35803;SDS011;21924;51.934;7.414;2023-08-17T10:25:40;12.50;;;5.40;;
35803;SDS011;21924;51.934;7.414;2023-08-17T10:28:26;12.23;;;6.55;;
35803;SDS011;21924;51.934;7.414;2023-08-17T10:31:12;14.73;;;6.68;;
35803;SDS011;21924;51.934;7.414;2023-08-17T10:36:43;12.02;;;5.68;;
35803;SDS011;21924;51.934;7.414;2023-08-17T10:39:29;13.85;;;6.28;;
35803;SDS011;21924;51.934;7.414;2023-08-17T10:42:14;15.45;;;6.68;;
35803;SDS011;21924;51.934;7.414;2023-08-17T10:44:58;15.38;;;6.95;;
35803;SDS011;21924;51.934;7.414;2023-08-17T10:47:47;16.15;;;7.13;;
35803;SDS011;21924;51.934;7.414;2023-08-17T10:50:33;15.68;;;7.65;;
35803;SDS011;21924;51.934;7.414;2023-08-17T10:53:21;12.20;;;6.75;;
35803;SDS011;21924;51.934;7.414;2023-08-17T10:56:06;12.43;;;7.50;;
35803;SDS011;21924;51.934;7.414;2023-08-17T10:58:52;11.57;;;6.82;;
35803;SDS011;21924;51.934;7.414;2023-08-17T11:01:40;14.38;;;7.10;;
35803;SDS011;21924;51.934;7.414;2023-08-17T11:04:25;12.35;;;7.22;;
35803;SDS011;21924;51.934;7.414;2023-08-17T11:13:54;13.13;;;6.70;;
35803;SDS011;21924;51.934;7.414;2023-08-17T11:16:39;14.43;;;6.97;;
35803;SDS011;21924;51.934;7.414;2023-08-17T11:19:23;10.03;;;6.33;;
35803;SDS011;21924;51.934;7.414;2023-08-17T11:22:07;16.58;;;7.35;;
35803;SDS011;21924;51.934;7.414;2023-08-17T11:24:53;12.93;;;7.13;;
35803;SDS011;21924;51.934;7.414;2023-08-17T11:27:37;16.92;;;7.07;;
35803;SDS011;21924;51.934;7.414;2023-08-17T11:30:22;10.63;;;6.72;;
35803;SDS011;21924;51.934;7.414;2023-08-17T11:33:07;11.03;;;6.57;;
35803;SDS011;21924;51.934;7.414;2023-08-17T11:35:57;11.25;;;6.72;;
35803;SDS011;21924;51.934;7.414;2023-08-17T11:38:42;13.25;;;7.43;;
35803;SDS011;21924;51.934;7.414;2023-08-17T11:41:29;12.52;;;6.50;;
35803;SDS011;21924;51.934;7.414;2023-08-17T11:44:13;13.10;;;7.18;;
35803;SDS011;21924;51.934;7.414;2023-08-17T11:49:47;12.45;;;6.88;;
35803;SDS011;21924;51.934;7.414;2023-08-17T11:52:33;13.40;;;7.30;;
35803;SDS011;21924;51.934;7.414;2023-08-17T11:55:20;16.15;;;7.45;;
35803;SDS011;21924;51.934;7.414;2023-08-17T11:58:04;12.95;;;7.63;;
35803;SDS011;21924;51.934;7.414;2023-08-17T12:00:50;14.77;;;7.78;;
35803;SDS011;21924;51.934;7.414;2023-08-17T12:03:35;14.48;;;7.35;;
35803;SDS011;21924;51.934;7.414;2023-08-17T12:06:20;18.95;;;8.27;;
35803;SDS011;21924;51.934;7.414;2023-08-17T12:09:05;16.03;;;8.37;;
35803;SDS011;21924;51.934;7.414;2023-08-17T12:11:53;16.27;;;8.07;;
35803;SDS011;21924;51.934;7.414;2023-08-17T12:14:42;15.02;;;8.93;;
35803;SDS011;21924;51.934;7.414;2023-08-17T12:17:29;15.05;;;8.13;;
35803;SDS011;21924;51.934;7.414;2023-08-17T12:20:17;18.90;;;9.88;;
35803;SDS011;21924;51.934;7.414;2023-08-17T12:23:05;16.48;;;8.55;;
35803;SDS011;21924;51.934;7.414;2023-08-17T12:25:53;13.95;;;8.23;;
35803;SDS011;21924;51.934;7.414;2023-08-17T12:28:40;15.25;;;8.60;;
35803;SDS011;21924;51.934;7.414;2023-08-17T12:31:25;14.38;;;8.55;;
35803;SDS011;21924;51.934;7.414;2023-08-17T12:34:09;18.40;;;8.82;;
35803;SDS011;21924;51.934;7.414;2023-08-17T12:36:54;18.65;;;9.43;;
35803;SDS011;21924;51.934;7.414;2023-08-17T12:39:38;19.67;;;8.93;;
35803;SDS011;21924;51.934;7.414;2023-08-17T12:49:35;19.48;;;10.32;;
35803;SDS011;21924;51.934;7.414;2023-08-17T12:52:19;20.13;;;10.95;;
35803;SDS011;21924;51.934;7.414;2023-08-17T12:55:04;17.75;;;9.65;;
35803;SDS011;21924;51.934;7.414;2023-08-17T12:57:48;20.35;;;10.15;;
35803;SDS011;21924;51.934;7.414;2023-08-17T13:00:32;16.45;;;10.65;;
35803;SDS011;21924;51.934;7.414;2023-08-17T13:03:18;16.30;;;9.85;;
35803;SDS011;21924;51.934;7.414;2023-08-17T13:06:03;17.23;;;10.13;;
35803;SDS011;21924;51.934;7.414;2023-08-17T13:08:47;22.65;;;10.85;;
35803;SDS011;21924;51.934;7.414;2023-08-17T13:11:31;18.85;;;9.38;;
35803;SDS011;21924;51.934;7.414;2023-08-17T13:14:16;18.35;;;9.68;;
35803;SDS011;21924;51.934;7.414;2023-08-17T13:17:01;16.63;;;10.05;;
35803;SDS011;21924;51.934;7.414;2023-08-17T13:22:30;18.08;;;9.05;;
35803;SDS011;21924;51.934;7.414;2023-08-17T13:25:15;18.45;;;10.40;;
35803;SDS011;21924;51.934;7.414;2023-08-17T13:28:00;17.45;;;9.48;;
35803;SDS011;21924;51.934;7.414;2023-08-17T13:30:44;16.08;;;9.85;;
35803;SDS011;21924;51.934;7.414;2023-08-17T13:33:28;18.75;;;9.60;;
35803;SDS011;21924;51.934;7.414;2023-08-17T13:36:12;18.98;;;10.75;;
35803;SDS011;21924;51.934;7.414;2023-08-17T13:38:57;20.23;;;9.52;;
35803;SDS011;21924;51.934;7.414;2023-08-17T13:41:41;23.40;;;10.27;;
35803;SDS011;21924;51.934;7.414;2023-08-17T13:44:26;19.95;;;9.73;;
35803;SDS011;21924;51.934;7.414;2023-08-17T13:47:12;19.73;;;10.95;;
35803;SDS011;21924;51.934;7.414;2023-08-17T13:49:57;19.58;;;10.30;;
35803;SDS011;21924;51.934;7.414;2023-08-17T13:52:42;16.35;;;9.48;;
35803;SDS011;21924;51.934;7.414;2023-08-17T13:55:26;18.38;;;9.25;;
35803;SDS011;21924;51.934;7.414;2023-08-17T14:00:55;16.48;;;9.48;;
35803;SDS011;21924;51.934;7.414;2023-08-17T14:03:40;20.33;;;10.32;;
35803;SDS011;21924;51.934;7.414;2023-08-17T14:06:26;16.85;;;10.30;;
35803;SDS011;21924;51.934;7.414;2023-08-17T14:09:10;21.02;;;10.02;;
35803;SDS011;21924;51.934;7.414;2023-08-17T14:11:54;20.02;;;10.23;;
35803;SDS011;21924;51.934;7.414;2023-08-17T14:14:39;19.33;;;11.27;;
35803;SDS011;21924;51.934;7.414;2023-08-17T14:17:23;25.90;;;10.75;;
35803;SDS011;21924;51.934;7.414;2023-08-17T14:20:07;20.70;;;10.50;;
35803;SDS011;21924;51.934;7.414;2023-08-17T14:22:52;23.65;;;10.73;;
35803;SDS011;21924;51.934;7.414;2023-08-17T14:25:36;19.02;;;9.68;;
35803;SDS011;21924;51.934;7.414;2023-08-17T14:28:20;20.35;;;10.25;;
35803;SDS011;21924;51.934;7.414;2023-08-17T14:31:05;25.77;;;11.63;;
35803;SDS011;21924;51.934;7.414;2023-08-17T14:33:49;16.13;;;10.40;;
35803;SDS011;21924;51.934;7.414;2023-08-17T14:36:33;22.23;;;11.88;;
35803;SDS011;21924;51.934;7.414;2023-08-17T14:39:17;25.13;;;11.60;;
35803;SDS011;21924;51.934;7.414;2023-08-17T14:42:02;22.77;;;11.23;;
35803;SDS011;21924;51.934;7.414;2023-08-17T14:44:46;18.83;;;10.70;;
35803;SDS011;21924;51.934;7.414;2023-08-17T14:47:30;21.67;;;11.63;;
35803;SDS011;21924;51.934;7.414;2023-08-17T14:50:14;25.77;;;11.95;;
35803;SDS011;21924;51.934;7.414;2023-08-17T14:52:59;18.50;;;10.88;;
35803;SDS011;21924;51.934;7.414;2023-08-17T14:55:47;17.65;;;10.80;;
35803;SDS011;21924;51.934;7.414;2023-08-17T14:58:31;21.30;;;10.00;;
35803;SDS011;21924;51.934;7.414;2023-08-17T15:01:15;17.05;;;9.80;;
35803;SDS011;21924;51.934;7.414;2023-08-17T15:04:00;19.08;;;9.55;;
35803;SDS011;21924;51.934;7.414;2023-08-17T15:06:44;19.83;;;10.00;;
35803;SDS011;21924;51.934;7.414;2023-08-17T15:09:28;18.75;;;9.60;;
35803;SDS011;21924;51.934;7.414;2023-08-17T15:12:13;15.55;;;10.07;;
35803;SDS011;21924;51.934;7.414;2023-08-17T15:14:59;20.25;;;10.00;;
35803;SDS011;21924;51.934;7.414;2023-08-17T15:17:43;21.48;;;10.13;;
35803;SDS011;21924;51.934;7.414;2023-08-17T15:20:27;16.25;;;9.82;;
35803;SDS011;21924;51.934;7.414;2023-08-17T15:23:13;13.25;;;8.82;;
35803;SDS011;21924;51.934;7.414;2023-08-17T15:25:58;18.67;;;9.65;;
35803;SDS011;21924;51.934;7.414;2023-08-17T15:28:42;14.32;;;8.65;;
35803;SDS011;21924;51.934;7.414;2023-08-17T15:31:26;16.08;;;8.73;;
35803;SDS011;21924;51.934;7.414;2023-08-17T15:34:10;16.05;;;9.88;;
35803;SDS011;21924;51.934;7.414;2023-08-17T15:36:55;15.63;;;9.50;;
35803;SDS011;21924;51.934;7.414;2023-08-17T15:39:39;13.05;;;9.07;;
35803;SDS011;21924;51.934;7.414;2023-08-17T15:42:23;15.32;;;9.13;;
35803;SDS011;21924;51.934;7.414;2023-08-17T15:45:07;16.02;;;9.93;;
35803;SDS011;21924;51.934;7.414;2023-08-17T15:47:52;16.55;;;10.38;;
35803;SDS011;21924;51.934;7.414;2023-08-17T15:50:36;14.93;;;9.93;;
35803;SDS011;21924;51.934;7.414;2023-08-17T15:53:22;18.92;;;10.60;;
35803;SDS011;21924;51.934;7.414;2023-08-17T15:56:07;15.98;;;9.40;;
35803;SDS011;21924;51.934;7.414;2023-08-17T15:58:53;12.88;;;8.90;;
35803;SDS011;21924;51.934;7.414;2023-08-17T16:01:37;14.50;;;7.65;;
35803;SDS011;21924;51.934;7.414;2023-08-17T16:04:21;13.55;;;8.13;;
35803;SDS011;21924;51.934;7.414;2023-08-17T16:07:14;12.23;;;8.27;;
35803;SDS011;21924;51.934;7.414;2023-08-17T16:10:02;13.93;;;7.75;;
35803;SDS011;21924;51.934;7.414;2023-08-17T16:12:48;12.65;;;8.57;;
35803;SDS011;21924;51.934;7.414;2023-08-17T16:15:34;14.30;;;8.13;;
35803;SDS011;21924;51.934;7.414;2023-08-17T16:18:18;11.63;;;7.60;;
35803;SDS011;21924;51.934;7.414;2023-08-17T16:21:03;18.02;;;7.85;;
35803;SDS011;21924;51.934;7.414;2023-08-17T16:23:47;12.57;;;7.38;;
35803;SDS011;21924;51.934;7.414;2023-08-17T16:26:31;12.82;;;7.60;;
35803;SDS011;21924;51.934;7.414;2023-08-17T16:29:16;10.98;;;6.70;;
35803;SDS011;21924;51.934;7.414;2023-08-17T16:32:02;9.57;;;6.45;;
35803;SDS011;21924;51.934;7.414;2023-08-17T16:34:48;9.00;;;6.20;;
35803;SDS011;21924;51.934;7.414;2023-08-17T16:40:18;11.55;;;6.88;;
35803;SDS011;21924;51.934;7.414;2023-08-17T16:43:02;8.93;;;5.82;;
35803;SDS011;21924;51.934;7.414;2023-08-17T16:45:47;9.50;;;6.28;;
35803;SDS011;21924;51.934;7.414;2023-08-17T16:48:31;10.45;;;6.15;;
35803;SDS011;21924;51.934;7.414;2023-08-17T16:51:16;8.90;;;5.53;;
35803;SDS011;21924;51.934;7.414;2023-08-17T16:54:00;7.88;;;4.75;;
35803;SDS011;21924;51.934;7.414;2023-08-17T16:56:46;9.73;;;5.60;;
35803;SDS011;21924;51.934;7.414;2023-08-17T16:59:30;7.82;;;5.22;;
35803;SDS011;21924;51.934;7.414;2023-08-17T17:02:14;13.98;;;6.18;;
35803;SDS011;21924;51.934;7.414;2023-08-17T17:05:00;8.02;;;5.72;;
35803;SDS011;21924;51.934;7.414;2023-08-17T17:07:44;9.75;;;4.90;;
35803;SDS011;21924;51.934;7.414;2023-08-17T17:10:28;10.07;;;4.97;;
35803;SDS011;21924;51.934;7.414;2023-08-17T17:13:13;9.05;;;5.82;;
35803;SDS011;21924;51.934;7.414;2023-08-17T17:15:57;10.95;;;5.70;;
35803;SDS011;21924;51.934;7.414;2023-08-17T17:18:41;15.35;;;6.45;;
35803;SDS011;21924;51.934;7.414;2023-08-17T17:21:26;10.70;;;6.10;;
35803;SDS011;21924;51.934;7.414;2023-08-17T17:24:11;10.25;;;6.32;;